SWR41G KLAX-LSZH
Flight info
| Callsign | SWR41G |
|---|---|
| Flight time | N/A |
| Altitude | 33000 |
| Route | OSHNN1 BEALE DCT BAWER DCT SAKES DCT EKR DCT RAP DCT DPR DCT GFK DCT YIX DCT VIRSO/N0489F350 DCT PELSI DCT LOPVI DCT PEPKI/M084F350 DCT PIDSO DCT 61N050W 62N040W 62N030W 61N020W/M084F370 DCT BALIX/N0481F370 DCT NINEX DCT NEXUS DCT GODOS DCT AMGOD DCT NIK M624 REMBA DCT SUTAL DCT GTQ DCT BAMEV DCT BLM |
| Aircraft | B77W/H-SDE1E2E3FGHIJ2J3J4J5M1RWXY/LB1D1 |
Departure
| Time | 2026-05-04 08:11 |
|---|---|
| Airport | Los Angeles International Airport (KLAX) |
Arrival
| Time | N/A |
|---|---|
| Airport | Zürich Airport (LSZH) |
| Time | Latitude | Longitude | Altitude | Speed | Heading |
|---|---|---|---|---|---|
| 2026-05-04 07:54 | 33.94024 | -118.40921 | 100 ft | 0 kts | 264° |
| 2026-05-04 08:02 | 33.94027 | -118.40891 | 100 ft | 2 kts | 261° |
| 2026-05-04 08:02 | 33.94030 | -118.40871 | 97 ft | 2 kts | 257° |
| 2026-05-04 08:02 | 33.94034 | -118.40852 | 96 ft | 2 kts | 248° |
| 2026-05-04 08:03 | 33.94042 | -118.40835 | 97 ft | 2 kts | 213° |
| 2026-05-04 08:03 | 33.94054 | -118.40830 | 96 ft | 1 kts | 174° |
| 2026-05-04 08:03 | 33.94056 | -118.40830 | 96 ft | 0 kts | 173° |
| 2026-05-04 08:05 | 33.94042 | -118.40829 | 97 ft | 7 kts | 173° |
| 2026-05-04 08:05 | 33.93978 | -118.40820 | 98 ft | 10 kts | 173° |
| 2026-05-04 08:06 | 33.93914 | -118.40803 | 99 ft | 10 kts | 152° |
| 2026-05-04 08:06 | 33.93844 | -118.40739 | 99 ft | 15 kts | 146° |
| 2026-05-04 08:06 | 33.93814 | -118.40628 | 101 ft | 15 kts | 82° |
| 2026-05-04 08:06 | 33.93831 | -118.40469 | 100 ft | 25 kts | 83° |
| 2026-05-04 08:08 | 33.93996 | -118.38863 | 99 ft | 26 kts | 83° |
| 2026-05-04 08:08 | 33.94018 | -118.38649 | 100 ft | 26 kts | 83° |
| 2026-05-04 08:10 | 33.93876 | -118.39074 | 100 ft | 124 kts | 263° |
| 2026-05-04 08:11 | 33.93745 | -118.40352 | 103 ft | 180 kts | 263° |
| 2026-05-04 08:11 | 33.93349 | -118.43476 | 1198 ft | 186 kts | 260° |
| 2026-05-04 08:11 | 33.93163 | -118.45039 | 1747 ft | 193 kts | 264° |
| 2026-05-04 08:12 | 33.92970 | -118.46721 | 1890 ft | 212 kts | 251° |
| 2026-05-04 08:12 | 33.92056 | -118.48194 | 2003 ft | 231 kts | 221° |
| 2026-05-04 08:12 | 33.90863 | -118.49530 | 2294 ft | 243 kts | 229° |
| 2026-05-04 08:12 | 33.89740 | -118.51100 | 2887 ft | 250 kts | 231° |
| 2026-05-04 08:13 | 33.88599 | -118.52706 | 3588 ft | 253 kts | 230° |
| 2026-05-04 08:13 | 33.87438 | -118.54314 | 4298 ft | 256 kts | 230° |
| 2026-05-04 08:13 | 33.86080 | -118.55706 | 4767 ft | 263 kts | 204° |
| 2026-05-04 08:13 | 33.84277 | -118.56014 | 5392 ft | 267 kts | 173° |
| 2026-05-04 08:14 | 33.82453 | -118.55536 | 5945 ft | 272 kts | 169° |
| 2026-05-04 08:14 | 33.80589 | -118.55028 | 6541 ft | 276 kts | 169° |
| 2026-05-04 08:14 | 33.78714 | -118.54519 | 7223 ft | 276 kts | 170° |
| 2026-05-04 08:16 | 33.67849 | -118.45936 | 10496 ft | 343 kts | 111° |
| 2026-05-04 08:16 | 33.67055 | -118.43147 | 10657 ft | 364 kts | 112° |
| 2026-05-04 08:16 | 33.66192 | -118.40191 | 10885 ft | 382 kts | 112° |
| 2026-05-04 08:17 | 33.65310 | -118.37118 | 11361 ft | 393 kts | 109° |
| 2026-05-04 08:17 | 33.64690 | -118.33871 | 11909 ft | 405 kts | 101° |
| 2026-05-04 08:17 | 33.64417 | -118.30476 | 12626 ft | 411 kts | 95° |
| 2026-05-04 08:17 | 33.64425 | -118.27031 | 13364 ft | 416 kts | 90° |
| 2026-05-04 08:19 | 33.76007 | -118.07621 | 16951 ft | 462 kts | 33° |
| 2026-05-04 08:19 | 33.78599 | -118.05301 | 17515 ft | 467 kts | 33° |
| 2026-05-04 08:20 | 33.81225 | -118.02944 | 18082 ft | 473 kts | 33° |
| 2026-05-04 08:20 | 33.83879 | -118.00558 | 18592 ft | 479 kts | 33° |
| 2026-05-04 08:20 | 33.86564 | -117.98142 | 19054 ft | 485 kts | 33° |
| 2026-05-04 08:20 | 33.89277 | -117.95700 | 19574 ft | 489 kts | 33° |
| 2026-05-04 08:21 | 33.91977 | -117.93263 | 20092 ft | 493 kts | 33° |
| 2026-05-04 08:21 | 33.94723 | -117.90758 | 20591 ft | 498 kts | 33° |
| 2026-05-04 08:21 | 33.97497 | -117.88214 | 21079 ft | 503 kts | 33° |
| 2026-05-04 08:21 | 34.00298 | -117.85646 | 21521 ft | 508 kts | 33° |
| 2026-05-04 08:22 | 34.03121 | -117.83062 | 21995 ft | 512 kts | 33° |
| 2026-05-04 08:22 | 34.05969 | -117.80449 | 22467 ft | 517 kts | 34° |
| 2026-05-04 08:24 | 34.23088 | -117.56726 | 25416 ft | 549 kts | 49° |
| 2026-05-04 08:24 | 34.25477 | -117.53178 | 25688 ft | 554 kts | 49° |
| 2026-05-04 08:24 | 34.27923 | -117.49544 | 25944 ft | 559 kts | 49° |
| 2026-05-04 08:24 | 34.30387 | -117.45872 | 26194 ft | 564 kts | 49° |
| 2026-05-04 08:25 | 34.32862 | -117.42176 | 26550 ft | 567 kts | 49° |
| 2026-05-04 08:25 | 34.35355 | -117.38447 | 26885 ft | 571 kts | 49° |
| 2026-05-04 08:25 | 34.37864 | -117.34690 | 27173 ft | 575 kts | 49° |
| 2026-05-04 08:25 | 34.40390 | -117.30905 | 27422 ft | 579 kts | 49° |
| 2026-05-04 08:26 | 34.42934 | -117.27088 | 27687 ft | 583 kts | 49° |
| 2026-05-04 08:27 | 34.61164 | -116.99924 | 29888 ft | 599 kts | 47° |
| 2026-05-04 08:28 | 34.63853 | -116.96043 | 30158 ft | 601 kts | 47° |
| 2026-05-04 08:28 | 34.66538 | -116.92154 | 30491 ft | 602 kts | 47° |
| 2026-05-04 08:28 | 34.69222 | -116.88247 | 30830 ft | 601 kts | 47° |
| 2026-05-04 08:28 | 34.71909 | -116.84319 | 30913 ft | 606 kts | 47° |
| 2026-05-04 08:29 | 34.77327 | -116.76370 | 30984 ft | 613 kts | 47° |
| 2026-05-04 08:29 | 34.80041 | -116.72380 | 31213 ft | 612 kts | 47° |
| 2026-05-04 08:31 | 34.99904 | -116.45068 | 32642 ft | 613 kts | 43° |
| 2026-05-04 08:33 | 35.20204 | -116.17790 | 32848 ft | 624 kts | 44° |
| 2026-05-04 08:33 | 35.23112 | -116.13856 | 32902 ft | 623 kts | 44° |
| 2026-05-04 08:35 | 35.46179 | -115.82504 | 32881 ft | 614 kts | 44° |
| 2026-05-04 08:35 | 35.51882 | -115.74706 | 32870 ft | 612 kts | 44° |
| 2026-05-04 08:37 | 35.71783 | -115.47358 | 32883 ft | 615 kts | 44° |
| 2026-05-04 08:38 | 35.77483 | -115.39478 | 32860 ft | 617 kts | 44° |
| 2026-05-04 08:38 | 35.83192 | -115.31563 | 32869 ft | 618 kts | 44° |
| 2026-05-04 08:40 | 36.05832 | -114.99980 | 32805 ft | 610 kts | 44° |
| 2026-05-04 08:41 | 36.11440 | -114.92111 | 32747 ft | 608 kts | 44° |
| 2026-05-04 08:41 | 36.16990 | -114.84308 | 32747 ft | 607 kts | 44° |
| 2026-05-04 08:42 | 36.22230 | -114.76052 | 32739 ft | 611 kts | 50° |
| 2026-05-04 08:42 | 36.27214 | -114.67491 | 32689 ft | 613 kts | 51° |
| 2026-05-04 08:43 | 36.32193 | -114.58901 | 32679 ft | 612 kts | 51° |
| 2026-05-04 08:43 | 36.37205 | -114.50333 | 32686 ft | 613 kts | 50° |
| 2026-05-04 08:44 | 36.42229 | -114.41772 | 32652 ft | 613 kts | 50° |
| 2026-05-04 08:46 | 36.62194 | -114.07495 | 32695 ft | 611 kts | 50° |
| 2026-05-04 08:46 | 36.67110 | -113.98995 | 32758 ft | 605 kts | 50° |
| 2026-05-04 08:47 | 36.72021 | -113.90483 | 32719 ft | 602 kts | 50° |
| 2026-05-04 08:47 | 36.76904 | -113.82002 | 32743 ft | 599 kts | 50° |
| 2026-05-04 08:48 | 36.81754 | -113.73560 | 32798 ft | 599 kts | 51° |
| 2026-05-04 08:48 | 36.86599 | -113.65104 | 32835 ft | 596 kts | 51° |
| 2026-05-04 08:49 | 36.91387 | -113.56722 | 32878 ft | 598 kts | 51° |
| 2026-05-04 08:50 | 37.04899 | -113.32954 | 32879 ft | 585 kts | 51° |
| 2026-05-04 08:50 | 37.07255 | -113.28795 | 32899 ft | 584 kts | 51° |
| 2026-05-04 08:51 | 37.11954 | -113.20486 | 32907 ft | 585 kts | 51° |
| 2026-05-04 08:51 | 37.16660 | -113.12141 | 32915 ft | 586 kts | 51° |
| 2026-05-04 08:52 | 37.21336 | -113.03828 | 32916 ft | 588 kts | 51° |
| 2026-05-04 08:52 | 37.26055 | -112.95416 | 32872 ft | 590 kts | 51° |
| 2026-05-04 08:54 | 37.44844 | -112.61710 | 32837 ft | 587 kts | 51° |
| 2026-05-04 08:55 | 37.49511 | -112.53286 | 32856 ft | 585 kts | 52° |
| 2026-05-04 08:55 | 37.54167 | -112.44860 | 32890 ft | 586 kts | 52° |
| 2026-05-04 08:57 | 37.70799 | -112.15848 | 33116 ft | 581 kts | 47° |
| 2026-05-04 09:01 | 38.05284 | -111.59267 | 32850 ft | 579 kts | 48° |
| 2026-05-04 09:01 | 38.10172 | -111.51143 | 32841 ft | 579 kts | 48° |
| 2026-05-04 09:02 | 38.15062 | -111.42994 | 32837 ft | 579 kts | 49° |
| 2026-05-04 09:02 | 38.19938 | -111.34849 | 32820 ft | 579 kts | 49° |
| 2026-05-04 09:03 | 38.24807 | -111.26695 | 32814 ft | 579 kts | 49° |
| 2026-05-04 09:03 | 38.29675 | -111.18523 | 32844 ft | 580 kts | 49° |
| 2026-05-04 09:04 | 38.34520 | -111.10369 | 32838 ft | 581 kts | 49° |
| 2026-05-04 09:04 | 38.39396 | -111.02143 | 32887 ft | 581 kts | 49° |
| 2026-05-04 09:05 | 38.44268 | -110.93902 | 32925 ft | 582 kts | 49° |
| 2026-05-04 09:05 | 38.49135 | -110.85647 | 32943 ft | 582 kts | 49° |
| 2026-05-04 09:06 | 38.54001 | -110.77373 | 32976 ft | 582 kts | 49° |
| 2026-05-04 09:07 | 38.70916 | -110.48446 | 32795 ft | 578 kts | 49° |
| 2026-05-04 09:08 | 38.73318 | -110.44318 | 32786 ft | 578 kts | 49° |
| 2026-05-04 09:08 | 38.78112 | -110.36061 | 32785 ft | 577 kts | 49° |
| 2026-05-04 09:09 | 38.82858 | -110.27869 | 32786 ft | 576 kts | 49° |
| 2026-05-04 09:09 | 38.87539 | -110.19517 | 32778 ft | 576 kts | 51° |
| 2026-05-04 09:10 | 38.92103 | -110.11031 | 32819 ft | 576 kts | 51° |
| 2026-05-04 09:10 | 38.96644 | -110.02562 | 32826 ft | 575 kts | 51° |
| 2026-05-04 09:11 | 39.01202 | -109.94108 | 32831 ft | 575 kts | 51° |
| 2026-05-04 09:11 | 39.05757 | -109.85668 | 32833 ft | 574 kts | 51° |
| 2026-05-04 09:12 | 39.10310 | -109.77213 | 32823 ft | 574 kts | 51° |
| 2026-05-04 09:14 | 39.28267 | -109.43606 | 32835 ft | 567 kts | 52° |
| 2026-05-04 09:14 | 39.32714 | -109.35229 | 32810 ft | 564 kts | 53° |
| 2026-05-04 09:15 | 39.37140 | -109.26870 | 32807 ft | 563 kts | 53° |
| 2026-05-04 09:15 | 39.41549 | -109.18523 | 32820 ft | 561 kts | 53° |
| 2026-05-04 09:17 | 39.61269 | -108.80909 | 32821 ft | 561 kts | 53° |
| 2026-05-04 09:18 | 39.65636 | -108.72516 | 32812 ft | 560 kts | 53° |
| 2026-05-04 09:18 | 39.69979 | -108.64149 | 32835 ft | 558 kts | 53° |
| 2026-05-04 09:19 | 39.74305 | -108.55793 | 32829 ft | 557 kts | 54° |
| 2026-05-04 09:19 | 39.78621 | -108.47433 | 32821 ft | 557 kts | 53° |
| 2026-05-04 09:20 | 39.82906 | -108.39114 | 32835 ft | 556 kts | 53° |
| 2026-05-04 09:20 | 39.87212 | -108.30732 | 32832 ft | 557 kts | 53° |
| 2026-05-04 09:21 | 39.91511 | -108.22338 | 32886 ft | 556 kts | 54° |
| 2026-05-04 09:21 | 39.95782 | -108.13976 | 32929 ft | 553 kts | 54° |
| 2026-05-04 09:22 | 40.00030 | -108.05638 | 32975 ft | 550 kts | 54° |
| 2026-05-04 09:22 | 40.04255 | -107.97347 | 33016 ft | 548 kts | 52° |
| 2026-05-04 09:23 | 40.09037 | -107.89736 | 32844 ft | 543 kts | 42° |
| 2026-05-04 09:23 | 40.14622 | -107.83168 | 32850 ft | 540 kts | 37° |
| 2026-05-04 09:25 | 40.34217 | -107.60610 | 32963 ft | 530 kts | 38° |
| 2026-05-04 09:25 | 40.36978 | -107.57388 | 32980 ft | 531 kts | 38° |
| 2026-05-04 09:26 | 40.42512 | -107.50919 | 32994 ft | 533 kts | 38° |
| 2026-05-04 09:26 | 40.48043 | -107.44443 | 32987 ft | 531 kts | 39° |
| 2026-05-04 09:27 | 40.53497 | -107.38040 | 32988 ft | 527 kts | 39° |
| 2026-05-04 09:27 | 40.58953 | -107.31620 | 32979 ft | 525 kts | 39° |
| 2026-05-04 09:28 | 40.64384 | -107.25217 | 32968 ft | 523 kts | 39° |
| 2026-05-04 09:28 | 40.69814 | -107.18802 | 32955 ft | 523 kts | 39° |
| 2026-05-04 09:29 | 40.75201 | -107.12423 | 32906 ft | 524 kts | 39° |
| 2026-05-04 09:29 | 40.80617 | -107.05992 | 32862 ft | 524 kts | 39° |
| 2026-05-04 09:30 | 40.86045 | -106.99534 | 32862 ft | 524 kts | 39° |
| 2026-05-04 09:30 | 40.91461 | -106.93075 | 32857 ft | 524 kts | 39° |
| 2026-05-04 09:31 | 40.96869 | -106.86610 | 32858 ft | 523 kts | 39° |
| 2026-05-04 09:31 | 41.02264 | -106.80146 | 32843 ft | 521 kts | 39° |
| 2026-05-04 09:32 | 41.07626 | -106.73706 | 32843 ft | 519 kts | 39° |
| 2026-05-04 09:34 | 41.28943 | -106.47962 | 32850 ft | 519 kts | 39° |
| 2026-05-04 09:34 | 41.34287 | -106.41471 | 32841 ft | 520 kts | 39° |
| 2026-05-04 09:35 | 41.39632 | -106.34964 | 32811 ft | 521 kts | 40° |
| 2026-05-04 09:35 | 41.44980 | -106.28437 | 32807 ft | 521 kts | 39° |
| 2026-05-04 09:37 | 41.66243 | -106.02333 | 32783 ft | 518 kts | 39° |
| 2026-05-04 09:38 | 41.71537 | -105.95796 | 32793 ft | 518 kts | 39° |
| 2026-05-04 09:38 | 41.75938 | -105.90351 | 32790 ft | 518 kts | 39° |
| 2026-05-04 09:39 | 41.81235 | -105.83783 | 32787 ft | 519 kts | 39° |
| 2026-05-04 09:39 | 41.86531 | -105.77199 | 32790 ft | 519 kts | 39° |
| 2026-05-04 09:40 | 41.91834 | -105.70592 | 32784 ft | 519 kts | 39° |
| 2026-05-04 09:40 | 41.97131 | -105.63976 | 32799 ft | 519 kts | 39° |
| 2026-05-04 09:42 | 42.18154 | -105.37563 | 32785 ft | 516 kts | 39° |
| 2026-05-04 09:43 | 42.23394 | -105.30941 | 32794 ft | 516 kts | 39° |
| 2026-05-04 09:43 | 42.28623 | -105.24317 | 32797 ft | 515 kts | 39° |
| 2026-05-04 09:44 | 42.33837 | -105.17693 | 32817 ft | 514 kts | 39° |
| 2026-05-04 09:46 | 42.54573 | -104.91202 | 32845 ft | 511 kts | 40° |
| 2026-05-04 09:46 | 42.59743 | -104.84558 | 32826 ft | 511 kts | 40° |
| 2026-05-04 09:47 | 42.64865 | -104.77960 | 32820 ft | 510 kts | 40° |
| 2026-05-04 09:49 | 42.85365 | -104.51391 | 32812 ft | 508 kts | 41° |
| 2026-05-04 09:51 | 43.03247 | -104.28004 | 32827 ft | 507 kts | 41° |
| 2026-05-04 09:51 | 43.08307 | -104.21351 | 32842 ft | 507 kts | 41° |
| 2026-05-04 09:52 | 43.13394 | -104.14645 | 32824 ft | 506 kts | 40° |
| 2026-05-04 09:52 | 43.18460 | -104.07951 | 32831 ft | 505 kts | 41° |
| 2026-05-04 09:53 | 43.23509 | -104.01263 | 32851 ft | 504 kts | 41° |
| 2026-05-04 09:53 | 43.28515 | -103.94616 | 32848 ft | 503 kts | 41° |
| 2026-05-04 09:54 | 43.33543 | -103.87924 | 32841 ft | 503 kts | 41° |
| 2026-05-04 09:54 | 43.38563 | -103.81226 | 32856 ft | 503 kts | 41° |
| 2026-05-04 09:55 | 43.43590 | -103.74502 | 32828 ft | 503 kts | 41° |
| 2026-05-04 09:55 | 43.48609 | -103.67773 | 32812 ft | 503 kts | 41° |
| 2026-05-04 09:56 | 43.53618 | -103.61041 | 32802 ft | 503 kts | 41° |
| 2026-05-04 09:56 | 43.58631 | -103.54286 | 32790 ft | 503 kts | 41° |
| 2026-05-04 09:57 | 43.63598 | -103.47577 | 32883 ft | 503 kts | 40° |
| 2026-05-04 09:57 | 43.68604 | -103.40799 | 32851 ft | 504 kts | 40° |
| 2026-05-04 09:58 | 43.73602 | -103.34016 | 32830 ft | 504 kts | 40° |
| 2026-05-04 09:58 | 43.78605 | -103.27207 | 32817 ft | 504 kts | 40° |
| 2026-05-04 10:00 | 43.98599 | -102.99933 | 32764 ft | 504 kts | 37° |
| 2026-05-04 10:04 | 44.36262 | -102.56456 | 32729 ft | 504 kts | 34° |
| 2026-05-04 10:04 | 44.41648 | -102.50158 | 32732 ft | 504 kts | 35° |
| 2026-05-04 10:05 | 44.47038 | -102.43841 | 32739 ft | 505 kts | 34° |
| 2026-05-04 10:05 | 44.52392 | -102.37550 | 32764 ft | 506 kts | 34° |
| 2026-05-04 10:06 | 44.57798 | -102.31183 | 32731 ft | 508 kts | 34° |
| 2026-05-04 10:06 | 44.63211 | -102.24790 | 32722 ft | 509 kts | 34° |
| 2026-05-04 10:08 | 44.82193 | -102.02242 | 32723 ft | 512 kts | 34° |
| 2026-05-04 10:08 | 44.87625 | -101.95753 | 32725 ft | 512 kts | 34° |
| 2026-05-04 10:09 | 44.93047 | -101.89259 | 32748 ft | 511 kts | 34° |
| 2026-05-04 10:09 | 44.98487 | -101.82726 | 32733 ft | 512 kts | 34° |
| 2026-05-04 10:10 | 45.03914 | -101.76193 | 32724 ft | 513 kts | 34° |
| 2026-05-04 10:10 | 45.09238 | -101.69560 | 32711 ft | 516 kts | 39° |
| 2026-05-04 10:11 | 45.14265 | -101.62276 | 32725 ft | 518 kts | 40° |
| 2026-05-04 10:11 | 45.19262 | -101.54894 | 32749 ft | 519 kts | 40° |
| 2026-05-04 10:12 | 45.24284 | -101.47505 | 32738 ft | 521 kts | 39° |
| 2026-05-04 10:12 | 45.29334 | -101.40103 | 32731 ft | 522 kts | 39° |
| 2026-05-04 10:13 | 45.34396 | -101.32675 | 32726 ft | 523 kts | 39° |
| 2026-05-04 10:13 | 45.39452 | -101.25233 | 32729 ft | 523 kts | 39° |
| 2026-05-04 10:14 | 45.44479 | -101.17812 | 32731 ft | 524 kts | 39° |
| 2026-05-04 10:16 | 45.64727 | -100.87708 | 32726 ft | 527 kts | 39° |
| 2026-05-04 10:16 | 45.69763 | -100.80168 | 32715 ft | 529 kts | 39° |
| 2026-05-04 10:17 | 45.74844 | -100.72539 | 32708 ft | 530 kts | 39° |
| 2026-05-04 10:19 | 45.95201 | -100.41757 | 32700 ft | 533 kts | 39° |
| 2026-05-04 10:19 | 46.00297 | -100.33997 | 32721 ft | 533 kts | 39° |
| 2026-05-04 10:20 | 46.05389 | -100.26220 | 32689 ft | 534 kts | 39° |
| 2026-05-04 10:20 | 46.10449 | -100.18470 | 32683 ft | 534 kts | 39° |
| 2026-05-04 10:21 | 46.15540 | -100.10649 | 32678 ft | 535 kts | 39° |
| 2026-05-04 10:21 | 46.20631 | -100.02806 | 32668 ft | 535 kts | 39° |
| 2026-05-04 10:22 | 46.28266 | -99.91002 | 32676 ft | 536 kts | 39° |
| 2026-05-04 10:23 | 46.33317 | -99.83164 | 32681 ft | 536 kts | 39° |
| 2026-05-04 10:25 | 46.53657 | -99.51368 | 32656 ft | 539 kts | 39° |
| 2026-05-04 10:25 | 46.58738 | -99.43365 | 32693 ft | 539 kts | 39° |
| 2026-05-04 10:26 | 46.63834 | -99.35316 | 32659 ft | 540 kts | 39° |
| 2026-05-04 10:26 | 46.68934 | -99.27238 | 32642 ft | 542 kts | 39° |
| 2026-05-04 10:27 | 46.73174 | -99.20503 | 32645 ft | 543 kts | 39° |
| 2026-05-04 10:27 | 46.78273 | -99.12378 | 32642 ft | 543 kts | 39° |
| 2026-05-04 10:28 | 46.83377 | -99.04223 | 32665 ft | 544 kts | 39° |
| 2026-05-04 10:28 | 46.88488 | -98.96031 | 32636 ft | 546 kts | 39° |
| 2026-05-04 10:29 | 46.93563 | -98.87873 | 32643 ft | 546 kts | 39° |
| 2026-05-04 10:29 | 46.98676 | -98.79628 | 32636 ft | 547 kts | 39° |
| 2026-05-04 10:30 | 47.03792 | -98.71352 | 32638 ft | 547 kts | 39° |
| 2026-05-04 10:30 | 47.08905 | -98.63056 | 32672 ft | 549 kts | 39° |
| 2026-05-04 10:31 | 47.14032 | -98.54715 | 32624 ft | 550 kts | 39° |
| 2026-05-04 10:32 | 47.31925 | -98.25386 | 32670 ft | 552 kts | 40° |
| 2026-05-04 10:33 | 47.37044 | -98.16938 | 32596 ft | 552 kts | 40° |
| 2026-05-04 10:33 | 47.42150 | -98.08480 | 32591 ft | 551 kts | 40° |
| 2026-05-04 10:34 | 47.47244 | -98.00017 | 32581 ft | 550 kts | 40° |
| 2026-05-04 10:34 | 47.52326 | -97.91548 | 32584 ft | 550 kts | 40° |
| 2026-05-04 10:35 | 47.57399 | -97.83071 | 32571 ft | 549 kts | 41° |
| 2026-05-04 10:35 | 47.62442 | -97.74611 | 32573 ft | 546 kts | 41° |
| 2026-05-04 10:36 | 47.67458 | -97.66170 | 32575 ft | 544 kts | 41° |
| 2026-05-04 10:36 | 47.72427 | -97.57788 | 32607 ft | 544 kts | 41° |
| 2026-05-04 10:37 | 47.77457 | -97.49277 | 32616 ft | 545 kts | 42° |
| 2026-05-04 10:37 | 47.82415 | -97.40856 | 32548 ft | 543 kts | 42° |
| 2026-05-04 10:39 | 47.99421 | -97.11090 | 32544 ft | 540 kts | 46° |
| 2026-05-04 10:40 | 48.03967 | -97.02108 | 32553 ft | 542 kts | 47° |
| 2026-05-04 10:40 | 48.08493 | -96.93116 | 32534 ft | 540 kts | 47° |
| 2026-05-04 10:41 | 48.12991 | -96.84226 | 32526 ft | 538 kts | 47° |
| 2026-05-04 10:41 | 48.17522 | -96.75286 | 32517 ft | 538 kts | 47° |
| 2026-05-04 10:42 | 48.22041 | -96.66345 | 32509 ft | 537 kts | 47° |
| 2026-05-04 10:42 | 48.26540 | -96.57406 | 32537 ft | 536 kts | 47° |
| 2026-05-04 10:43 | 48.31024 | -96.48463 | 32516 ft | 534 kts | 47° |
| 2026-05-04 10:45 | 48.48768 | -96.12789 | 32505 ft | 533 kts | 48° |
| 2026-05-04 10:45 | 48.53193 | -96.03820 | 32510 ft | 533 kts | 48° |
| 2026-05-04 10:46 | 48.57612 | -95.94830 | 32493 ft | 533 kts | 48° |
| 2026-05-04 10:46 | 48.62024 | -95.85825 | 32476 ft | 533 kts | 48° |
| 2026-05-04 10:47 | 48.66424 | -95.76814 | 32469 ft | 532 kts | 48° |
| 2026-05-04 10:47 | 48.70793 | -95.67838 | 32465 ft | 532 kts | 48° |
| 2026-05-04 10:49 | 48.88358 | -95.31447 | 32431 ft | 535 kts | 49° |
| 2026-05-04 10:50 | 48.92744 | -95.22281 | 32442 ft | 536 kts | 49° |
| 2026-05-04 10:52 | 49.10199 | -94.85493 | 32435 ft | 534 kts | 50° |
| 2026-05-04 10:52 | 49.14537 | -94.76272 | 32409 ft | 534 kts | 50° |
| 2026-05-04 10:54 | 49.31815 | -94.39225 | 32369 ft | 535 kts | 51° |
| 2026-05-04 10:56 | 49.48958 | -94.01908 | 32343 ft | 535 kts | 52° |
| 2026-05-04 10:57 | 49.53023 | -93.92299 | 32320 ft | 536 kts | 54° |
| 2026-05-04 10:57 | 49.56994 | -93.82598 | 32309 ft | 535 kts | 54° |
| 2026-05-04 10:58 | 49.60973 | -93.72915 | 32299 ft | 534 kts | 54° |
| 2026-05-04 10:58 | 49.64970 | -93.63247 | 32296 ft | 534 kts | 53° |
| 2026-05-04 10:59 | 49.68974 | -93.53558 | 32299 ft | 535 kts | 54° |
| 2026-05-04 10:59 | 49.72969 | -93.43856 | 32289 ft | 535 kts | 54° |
| 2026-05-04 11:00 | 49.76960 | -93.34114 | 32284 ft | 535 kts | 54° |
| 2026-05-04 11:02 | 49.92819 | -92.95046 | 32289 ft | 536 kts | 55° |
| 2026-05-04 11:05 | 50.22163 | -92.21185 | 32238 ft | 535 kts | 56° |
| 2026-05-04 11:06 | 50.26049 | -92.11247 | 32234 ft | 536 kts | 56° |
| 2026-05-04 11:06 | 50.29926 | -92.01291 | 32232 ft | 536 kts | 56° |
| 2026-05-04 11:10 | 50.56852 | -91.31084 | 32213 ft | 536 kts | 57° |
| 2026-05-04 11:12 | 50.72025 | -90.90669 | 32183 ft | 535 kts | 58° |
| 2026-05-04 11:12 | 50.75164 | -90.82226 | 32183 ft | 535 kts | 58° |
| 2026-05-04 11:13 | 50.78926 | -90.72074 | 32183 ft | 535 kts | 58° |
| 2026-05-04 11:13 | 50.82678 | -90.61907 | 32185 ft | 535 kts | 58° |
| 2026-05-04 11:14 | 50.86423 | -90.51720 | 32177 ft | 536 kts | 58° |
| 2026-05-04 11:16 | 51.01323 | -90.10780 | 32165 ft | 537 kts | 59° |
| 2026-05-04 11:16 | 51.05033 | -90.00483 | 32171 ft | 537 kts | 59° |
| 2026-05-04 11:17 | 51.08734 | -89.90170 | 32156 ft | 537 kts | 59° |
| 2026-05-04 11:19 | 51.23470 | -89.48687 | 32159 ft | 539 kts | 60° |
| 2026-05-04 11:19 | 51.27146 | -89.38231 | 32159 ft | 539 kts | 60° |
| 2026-05-04 11:20 | 51.30805 | -89.27781 | 32160 ft | 539 kts | 60° |
| 2026-05-04 11:20 | 51.34459 | -89.17301 | 32184 ft | 539 kts | 60° |
| 2026-05-04 11:22 | 51.48907 | -88.75434 | 32166 ft | 536 kts | 60° |
| 2026-05-04 11:23 | 51.52477 | -88.64980 | 32167 ft | 537 kts | 61° |
| 2026-05-04 11:25 | 51.65001 | -88.27962 | 32239 ft | 540 kts | 61° |
| 2026-05-04 11:25 | 51.66761 | -88.22713 | 32479 ft | 539 kts | 61° |
| 2026-05-04 11:25 | 51.68543 | -88.17387 | 32814 ft | 537 kts | 61° |
| 2026-05-04 11:26 | 51.72059 | -88.06849 | 33455 ft | 531 kts | 61° |
| 2026-05-04 11:27 | 51.84177 | -87.70186 | 34187 ft | 522 kts | 62° |
| 2026-05-04 11:28 | 51.87572 | -87.59816 | 34213 ft | 521 kts | 62° |
| 2026-05-04 11:28 | 51.90931 | -87.49512 | 34210 ft | 521 kts | 62° |
| 2026-05-04 11:29 | 51.94305 | -87.39117 | 34243 ft | 522 kts | 62° |
| 2026-05-04 11:29 | 51.97683 | -87.28671 | 34245 ft | 524 kts | 62° |
| 2026-05-04 11:33 | 52.21200 | -86.54666 | 34310 ft | 526 kts | 62° |
| 2026-05-04 11:33 | 52.24523 | -86.44024 | 34352 ft | 526 kts | 62° |
| 2026-05-04 11:34 | 52.27810 | -86.33453 | 34337 ft | 525 kts | 62° |
| 2026-05-04 11:34 | 52.31104 | -86.22812 | 34348 ft | 524 kts | 63° |
| 2026-05-04 11:35 | 52.34382 | -86.12178 | 34351 ft | 524 kts | 63° |
| 2026-05-04 11:35 | 52.37656 | -86.01510 | 34353 ft | 523 kts | 63° |
| 2026-05-04 11:36 | 52.40909 | -85.90860 | 34374 ft | 522 kts | 63° |
| 2026-05-04 11:36 | 52.44130 | -85.80273 | 34381 ft | 522 kts | 63° |
| 2026-05-04 11:37 | 52.47360 | -85.69607 | 34392 ft | 521 kts | 63° |
| 2026-05-04 11:37 | 52.50566 | -85.58974 | 34388 ft | 518 kts | 63° |
| 2026-05-04 11:38 | 52.53751 | -85.48361 | 34378 ft | 516 kts | 63° |
| 2026-05-04 11:38 | 52.56908 | -85.37800 | 34400 ft | 514 kts | 63° |
| 2026-05-04 11:39 | 52.60048 | -85.27242 | 34412 ft | 513 kts | 63° |
| 2026-05-04 11:41 | 52.70980 | -84.90133 | 34426 ft | 517 kts | 64° |
| 2026-05-04 11:41 | 52.74105 | -84.79417 | 34436 ft | 519 kts | 64° |
| 2026-05-04 11:42 | 52.77210 | -84.68720 | 34437 ft | 520 kts | 64° |
| 2026-05-04 11:42 | 52.80331 | -84.57920 | 34433 ft | 521 kts | 64° |
| 2026-05-04 11:43 | 52.83449 | -84.47079 | 34442 ft | 521 kts | 64° |
| 2026-05-04 11:43 | 52.86555 | -84.36231 | 34444 ft | 521 kts | 64° |
| 2026-05-04 11:44 | 52.89647 | -84.25384 | 34452 ft | 521 kts | 65° |
| 2026-05-04 11:44 | 52.92725 | -84.14532 | 34450 ft | 520 kts | 65° |
| 2026-05-04 11:45 | 52.95790 | -84.03681 | 34456 ft | 519 kts | 65° |
| 2026-05-04 11:45 | 52.98842 | -83.92819 | 34457 ft | 518 kts | 65° |
| 2026-05-04 11:46 | 53.01859 | -83.82037 | 34463 ft | 518 kts | 65° |
| 2026-05-04 11:46 | 53.04884 | -83.71175 | 34462 ft | 517 kts | 65° |
| 2026-05-04 11:47 | 53.07895 | -83.60310 | 34465 ft | 517 kts | 65° |
| 2026-05-04 11:47 | 53.10899 | -83.49422 | 34470 ft | 517 kts | 65° |
| 2026-05-04 11:48 | 53.13868 | -83.38607 | 34470 ft | 516 kts | 65° |
| 2026-05-04 11:48 | 53.16851 | -83.27695 | 34475 ft | 516 kts | 65° |
| 2026-05-04 11:49 | 53.19812 | -83.16806 | 34478 ft | 515 kts | 65° |
| 2026-05-04 11:49 | 53.22763 | -83.05905 | 34481 ft | 515 kts | 65° |
| 2026-05-04 11:50 | 53.25705 | -82.94986 | 34481 ft | 515 kts | 66° |
| 2026-05-04 11:50 | 53.28638 | -82.84050 | 34483 ft | 516 kts | 66° |
| 2026-05-04 11:51 | 53.31544 | -82.73159 | 34485 ft | 516 kts | 66° |
| 2026-05-04 11:51 | 53.34457 | -82.62193 | 34489 ft | 516 kts | 66° |
| 2026-05-04 11:52 | 53.37363 | -82.51199 | 34485 ft | 516 kts | 66° |
| 2026-05-04 11:52 | 53.40257 | -82.40193 | 34485 ft | 516 kts | 66° |
| 2026-05-04 11:53 | 53.43145 | -82.29162 | 34481 ft | 516 kts | 66° |
| 2026-05-04 11:53 | 53.46017 | -82.18137 | 34483 ft | 515 kts | 66° |
| 2026-05-04 11:55 | 53.57368 | -81.74021 | 34479 ft | 513 kts | 66° |
| 2026-05-04 11:56 | 53.60155 | -81.63056 | 34483 ft | 512 kts | 66° |
| 2026-05-04 11:56 | 53.62951 | -81.52001 | 34486 ft | 512 kts | 67° |
| 2026-05-04 11:57 | 53.65731 | -81.40952 | 34493 ft | 512 kts | 67° |
| 2026-05-04 11:57 | 53.68501 | -81.29891 | 34501 ft | 512 kts | 67° |
| 2026-05-04 11:58 | 53.71250 | -81.18855 | 34495 ft | 512 kts | 67° |
| 2026-05-04 11:58 | 53.74005 | -81.07746 | 34496 ft | 512 kts | 67° |
| 2026-05-04 11:59 | 53.76286 | -80.98500 | 34508 ft | 512 kts | 67° |
| 2026-05-04 11:59 | 53.79019 | -80.87375 | 34507 ft | 512 kts | 68° |
| 2026-05-04 12:00 | 53.81743 | -80.76228 | 34518 ft | 512 kts | 68° |
| 2026-05-04 12:00 | 53.84445 | -80.65113 | 34521 ft | 513 kts | 68° |
| 2026-05-04 12:01 | 53.87166 | -80.53864 | 34520 ft | 513 kts | 68° |
| 2026-05-04 12:02 | 53.96547 | -80.14628 | 34533 ft | 513 kts | 68° |
| 2026-05-04 12:03 | 53.99229 | -80.03443 | 34532 ft | 513 kts | 65° |
| 2026-05-04 12:03 | 54.02738 | -79.92864 | 34531 ft | 513 kts | 55° |
| 2026-05-04 12:04 | 54.06828 | -79.82891 | 34540 ft | 513 kts | 55° |
| 2026-05-04 12:04 | 54.10914 | -79.72918 | 34553 ft | 513 kts | 55° |
| 2026-05-04 12:05 | 54.14963 | -79.62885 | 34554 ft | 513 kts | 56° |
| 2026-05-04 12:05 | 54.18962 | -79.52871 | 34558 ft | 514 kts | 56° |
| 2026-05-04 12:06 | 54.22979 | -79.42758 | 34559 ft | 514 kts | 56° |
| 2026-05-04 12:06 | 54.26984 | -79.32639 | 34561 ft | 514 kts | 56° |
| 2026-05-04 12:07 | 54.30993 | -79.22476 | 34567 ft | 514 kts | 56° |
| 2026-05-04 12:07 | 54.34971 | -79.12352 | 34574 ft | 515 kts | 56° |
| 2026-05-04 12:08 | 54.38970 | -79.02133 | 34573 ft | 516 kts | 57° |
| 2026-05-04 12:08 | 54.42960 | -78.91894 | 34576 ft | 516 kts | 57° |
| 2026-05-04 12:09 | 54.46955 | -78.81598 | 34579 ft | 517 kts | 57° |
| 2026-05-04 12:09 | 54.50934 | -78.71303 | 34592 ft | 517 kts | 57° |
| 2026-05-04 12:10 | 54.54881 | -78.61047 | 34591 ft | 517 kts | 57° |
| 2026-05-04 12:10 | 54.58839 | -78.50719 | 34597 ft | 516 kts | 57° |
| 2026-05-04 12:11 | 54.62788 | -78.40372 | 34599 ft | 516 kts | 57° |
| 2026-05-04 12:11 | 54.66727 | -78.30011 | 34598 ft | 516 kts | 57° |
| 2026-05-04 12:12 | 54.70660 | -78.19619 | 34613 ft | 516 kts | 57° |
| 2026-05-04 12:12 | 54.74581 | -78.09213 | 34607 ft | 516 kts | 58° |
| 2026-05-04 12:14 | 54.90202 | -77.67330 | 34633 ft | 517 kts | 58° |
| 2026-05-04 12:15 | 54.94086 | -77.56805 | 34639 ft | 517 kts | 58° |
| 2026-05-04 12:15 | 54.97934 | -77.46332 | 34652 ft | 517 kts | 58° |
| 2026-05-04 12:16 | 55.01798 | -77.35769 | 34649 ft | 516 kts | 58° |
| 2026-05-04 12:16 | 55.05647 | -77.25203 | 34655 ft | 515 kts | 59° |
| 2026-05-04 12:17 | 55.09481 | -77.14632 | 34668 ft | 515 kts | 59° |
| 2026-05-04 12:17 | 55.13304 | -77.04048 | 34673 ft | 515 kts | 59° |
| 2026-05-04 12:18 | 55.17117 | -76.93446 | 34673 ft | 514 kts | 59° |
| 2026-05-04 12:18 | 55.20894 | -76.82900 | 34685 ft | 515 kts | 59° |
| 2026-05-04 12:19 | 55.24685 | -76.72264 | 34682 ft | 515 kts | 59° |
| 2026-05-04 12:19 | 55.28471 | -76.61599 | 34687 ft | 515 kts | 59° |
| 2026-05-04 12:20 | 55.32249 | -76.50908 | 34694 ft | 515 kts | 59° |
| 2026-05-04 12:20 | 55.36023 | -76.40182 | 34700 ft | 516 kts | 59° |
| 2026-05-04 12:21 | 55.39793 | -76.29422 | 34709 ft | 516 kts | 60° |
| 2026-05-04 12:21 | 55.43534 | -76.18696 | 34706 ft | 516 kts | 60° |
| 2026-05-04 12:22 | 55.47286 | -76.07890 | 34713 ft | 516 kts | 60° |
| 2026-05-04 12:22 | 55.51027 | -75.97069 | 34717 ft | 516 kts | 60° |
| 2026-05-04 12:23 | 55.54763 | -75.86216 | 34708 ft | 517 kts | 60° |
| 2026-05-04 12:23 | 55.58489 | -75.75340 | 34717 ft | 517 kts | 60° |
| 2026-05-04 12:24 | 55.62202 | -75.64454 | 34732 ft | 517 kts | 60° |
| 2026-05-04 12:24 | 55.65883 | -75.53614 | 34724 ft | 517 kts | 60° |
| 2026-05-04 12:25 | 55.69577 | -75.42687 | 34738 ft | 517 kts | 61° |
| 2026-05-04 12:25 | 55.73268 | -75.31720 | 34723 ft | 517 kts | 61° |
| 2026-05-04 12:26 | 55.76951 | -75.20728 | 34728 ft | 517 kts | 61° |
| 2026-05-04 12:26 | 55.80619 | -75.09728 | 34732 ft | 517 kts | 62° |
| 2026-05-04 12:27 | 55.84276 | -74.98711 | 34741 ft | 517 kts | 62° |
| 2026-05-04 12:27 | 55.87924 | -74.87671 | 34745 ft | 518 kts | 62° |
| 2026-05-04 12:28 | 55.91564 | -74.76605 | 34749 ft | 518 kts | 62° |
| 2026-05-04 12:28 | 55.95197 | -74.65509 | 34751 ft | 518 kts | 62° |
| 2026-05-04 12:29 | 55.98817 | -74.54400 | 34762 ft | 518 kts | 62° |
| 2026-05-04 12:29 | 56.02435 | -74.43251 | 34750 ft | 517 kts | 62° |
| 2026-05-04 12:30 | 56.06033 | -74.32105 | 34764 ft | 517 kts | 63° |
| 2026-05-04 12:30 | 56.09620 | -74.20943 | 34765 ft | 517 kts | 63° |
| 2026-05-04 12:31 | 56.13181 | -74.09811 | 34767 ft | 517 kts | 63° |
| 2026-05-04 12:31 | 56.16754 | -73.98588 | 34777 ft | 518 kts | 63° |
| 2026-05-04 12:32 | 56.22097 | -73.81711 | 34777 ft | 518 kts | 63° |
| 2026-05-04 12:33 | 56.25650 | -73.70420 | 34768 ft | 518 kts | 63° |
| 2026-05-04 12:33 | 56.29184 | -73.59136 | 34777 ft | 518 kts | 64° |
| 2026-05-04 12:34 | 56.32692 | -73.47880 | 34784 ft | 518 kts | 64° |
| 2026-05-04 12:34 | 56.36217 | -73.36515 | 34784 ft | 519 kts | 64° |
| 2026-05-04 12:35 | 56.39729 | -73.25137 | 34783 ft | 519 kts | 64° |
| 2026-05-04 12:35 | 56.43241 | -73.13706 | 34789 ft | 519 kts | 64° |
| 2026-05-04 12:36 | 56.46736 | -73.02275 | 34761 ft | 519 kts | 64° |
| 2026-05-04 12:36 | 56.50195 | -72.90909 | 34784 ft | 519 kts | 65° |
| 2026-05-04 12:37 | 56.53667 | -72.79440 | 34792 ft | 519 kts | 65° |
| 2026-05-04 12:37 | 56.57132 | -72.67940 | 34790 ft | 519 kts | 65° |
| 2026-05-04 12:38 | 56.60565 | -72.56490 | 34800 ft | 519 kts | 65° |
| 2026-05-04 12:38 | 56.64014 | -72.44931 | 34797 ft | 519 kts | 65° |
| 2026-05-04 12:39 | 56.67447 | -72.33370 | 34793 ft | 520 kts | 65° |
| 2026-05-04 12:39 | 56.70872 | -72.21780 | 34780 ft | 519 kts | 66° |
| 2026-05-04 12:40 | 56.74276 | -72.10202 | 34800 ft | 518 kts | 66° |
| 2026-05-04 12:40 | 56.77649 | -71.98670 | 34804 ft | 519 kts | 66° |
| 2026-05-04 12:41 | 56.81038 | -71.87025 | 34804 ft | 519 kts | 66° |
| 2026-05-04 12:41 | 56.84409 | -71.75386 | 34804 ft | 519 kts | 66° |
| 2026-05-04 12:42 | 56.87774 | -71.63711 | 34804 ft | 519 kts | 66° |
| 2026-05-04 12:42 | 56.91130 | -71.52004 | 34814 ft | 519 kts | 66° |
| 2026-05-04 12:43 | 56.94456 | -71.40344 | 34800 ft | 519 kts | 67° |
| 2026-05-04 12:43 | 56.97789 | -71.28600 | 34814 ft | 519 kts | 67° |
| 2026-05-04 12:44 | 57.01116 | -71.16824 | 34812 ft | 519 kts | 67° |
| 2026-05-04 12:44 | 57.04423 | -71.05050 | 34810 ft | 519 kts | 67° |
| 2026-05-04 12:45 | 57.07702 | -70.93323 | 34813 ft | 519 kts | 67° |
| 2026-05-04 12:45 | 57.10984 | -70.81516 | 34817 ft | 519 kts | 67° |
| 2026-05-04 12:46 | 57.14261 | -70.69672 | 34798 ft | 519 kts | 68° |
| 2026-05-04 12:46 | 57.17527 | -70.57810 | 34820 ft | 519 kts | 68° |
| 2026-05-04 12:47 | 57.20229 | -70.47945 | 34828 ft | 519 kts | 68° |
| 2026-05-04 12:47 | 57.23469 | -70.36056 | 34833 ft | 518 kts | 68° |
| 2026-05-04 12:48 | 57.26700 | -70.24142 | 34832 ft | 518 kts | 69° |
| 2026-05-04 12:48 | 57.29920 | -70.12208 | 34835 ft | 518 kts | 69° |
| 2026-05-04 12:49 | 57.33125 | -70.00264 | 34830 ft | 518 kts | 69° |
| 2026-05-04 12:49 | 57.36320 | -69.88297 | 34807 ft | 518 kts | 69° |
| 2026-05-04 12:50 | 57.39479 | -69.76402 | 34820 ft | 517 kts | 69° |
| 2026-05-04 12:50 | 57.42643 | -69.64421 | 34836 ft | 517 kts | 70° |
| 2026-05-04 12:51 | 57.45798 | -69.52409 | 34837 ft | 518 kts | 70° |
| 2026-05-04 12:51 | 57.48948 | -69.40351 | 34832 ft | 518 kts | 70° |
| 2026-05-04 12:52 | 57.52089 | -69.28271 | 34835 ft | 518 kts | 70° |
| 2026-05-04 12:52 | 57.55217 | -69.16167 | 34821 ft | 519 kts | 70° |
| 2026-05-04 12:53 | 57.58334 | -69.04048 | 34806 ft | 518 kts | 71° |
| 2026-05-04 12:53 | 57.61431 | -68.91938 | 34840 ft | 518 kts | 71° |
| 2026-05-04 12:54 | 57.64499 | -68.79873 | 34842 ft | 518 kts | 71° |
| 2026-05-04 12:54 | 57.67575 | -68.67711 | 34835 ft | 518 kts | 71° |
| 2026-05-04 12:55 | 57.70650 | -68.55487 | 34834 ft | 518 kts | 71° |
| 2026-05-04 12:55 | 57.73702 | -68.43290 | 34845 ft | 518 kts | 71° |
| 2026-05-04 12:56 | 57.76743 | -68.31067 | 34844 ft | 518 kts | 71° |
| 2026-05-04 12:56 | 57.79755 | -68.18895 | 34853 ft | 517 kts | 71° |
| 2026-05-04 12:57 | 57.82772 | -68.06631 | 34858 ft | 517 kts | 71° |
| 2026-05-04 12:57 | 57.85774 | -67.94357 | 34851 ft | 517 kts | 71° |
| 2026-05-04 12:58 | 57.88771 | -67.82040 | 34857 ft | 517 kts | 72° |
| 2026-05-04 12:58 | 57.91749 | -67.69733 | 34823 ft | 517 kts | 72° |
| 2026-05-04 12:59 | 57.94700 | -67.57462 | 34844 ft | 517 kts | 72° |
| 2026-05-04 12:59 | 57.97656 | -67.45100 | 34850 ft | 518 kts | 72° |
| 2026-05-04 13:00 | 58.00607 | -67.32694 | 34841 ft | 517 kts | 73° |
| 2026-05-04 13:00 | 58.03539 | -67.20293 | 34850 ft | 518 kts | 73° |
| 2026-05-04 13:01 | 58.06472 | -67.07866 | 34854 ft | 520 kts | 71° |
| 2026-05-04 13:01 | 58.10163 | -66.95951 | 34833 ft | 531 kts | 61° |
| 2026-05-04 13:02 | 58.14869 | -66.85133 | 34859 ft | 537 kts | 55° |
| 2026-05-04 13:02 | 58.19806 | -66.74465 | 34851 ft | 538 kts | 55° |
| 2026-05-04 13:03 | 58.24714 | -66.63727 | 34850 ft | 539 kts | 55° |
| 2026-05-04 13:03 | 58.29587 | -66.52888 | 34840 ft | 539 kts | 56° |
| 2026-05-04 13:04 | 58.34445 | -66.41984 | 34855 ft | 539 kts | 56° |
| 2026-05-04 13:04 | 58.39255 | -66.31147 | 34855 ft | 538 kts | 57° |
| 2026-05-04 13:05 | 58.44089 | -66.20211 | 34865 ft | 538 kts | 57° |
| 2026-05-04 13:05 | 58.48904 | -66.09267 | 34858 ft | 538 kts | 57° |
| 2026-05-04 13:06 | 58.53709 | -65.98299 | 34865 ft | 537 kts | 57° |
| 2026-05-04 13:06 | 58.58508 | -65.87292 | 34869 ft | 538 kts | 57° |
| 2026-05-04 13:07 | 58.63304 | -65.76235 | 34873 ft | 539 kts | 57° |
| 2026-05-04 13:07 | 58.68075 | -65.65190 | 34872 ft | 539 kts | 57° |
| 2026-05-04 13:08 | 58.72868 | -65.54040 | 34849 ft | 539 kts | 57° |
| 2026-05-04 13:08 | 58.77618 | -65.42938 | 34861 ft | 540 kts | 57° |
| 2026-05-04 13:09 | 58.82401 | -65.31700 | 34872 ft | 541 kts | 57° |
| 2026-05-04 13:09 | 58.87173 | -65.20438 | 34882 ft | 542 kts | 57° |
| 2026-05-04 13:10 | 58.91935 | -65.09148 | 34867 ft | 541 kts | 58° |
| 2026-05-04 13:10 | 58.96682 | -64.97837 | 34870 ft | 541 kts | 58° |
| 2026-05-04 13:11 | 59.01402 | -64.86533 | 34873 ft | 542 kts | 58° |
| 2026-05-04 13:11 | 59.06137 | -64.75140 | 34875 ft | 542 kts | 58° |
| 2026-05-04 13:12 | 59.10868 | -64.63701 | 34892 ft | 542 kts | 58° |
| 2026-05-04 13:12 | 59.15582 | -64.52246 | 34908 ft | 542 kts | 58° |
| 2026-05-04 13:13 | 59.20250 | -64.40849 | 34921 ft | 541 kts | 58° |
| 2026-05-04 13:13 | 59.24816 | -64.29195 | 34900 ft | 535 kts | 64° |
| 2026-05-04 13:14 | 59.28344 | -64.16570 | 34923 ft | 523 kts | 75° |
| 2026-05-04 13:14 | 59.30861 | -64.03368 | 34928 ft | 517 kts | 78° |
| 2026-05-04 13:15 | 59.33272 | -63.90089 | 34921 ft | 516 kts | 78° |
| 2026-05-04 13:15 | 59.35693 | -63.76874 | 34930 ft | 515 kts | 78° |
| 2026-05-04 13:16 | 59.38131 | -63.63637 | 34943 ft | 516 kts | 78° |
| 2026-05-04 13:16 | 59.40550 | -63.50437 | 34941 ft | 518 kts | 78° |
| 2026-05-04 13:17 | 59.42975 | -63.37112 | 34939 ft | 519 kts | 78° |
| 2026-05-04 13:17 | 59.45391 | -63.23733 | 34937 ft | 519 kts | 78° |
| 2026-05-04 13:18 | 59.47791 | -63.10346 | 34923 ft | 519 kts | 78° |
| 2026-05-04 13:18 | 59.50165 | -62.97010 | 34933 ft | 518 kts | 78° |
| 2026-05-04 13:19 | 59.52534 | -62.83606 | 34933 ft | 518 kts | 78° |
| 2026-05-04 13:19 | 59.54888 | -62.70189 | 34932 ft | 517 kts | 78° |
| 2026-05-04 13:20 | 59.57222 | -62.56788 | 34936 ft | 516 kts | 79° |
| 2026-05-04 13:20 | 59.59540 | -62.43384 | 34937 ft | 516 kts | 79° |
| 2026-05-04 13:21 | 59.61844 | -62.29963 | 34923 ft | 516 kts | 79° |
| 2026-05-04 13:21 | 59.64135 | -62.16514 | 34929 ft | 516 kts | 79° |
| 2026-05-04 13:22 | 59.66417 | -62.03017 | 34931 ft | 517 kts | 79° |
| 2026-05-04 13:22 | 59.68671 | -61.89592 | 34926 ft | 518 kts | 79° |
| 2026-05-04 13:23 | 59.70930 | -61.76043 | 34927 ft | 518 kts | 79° |
| 2026-05-04 13:23 | 59.73182 | -61.62494 | 34917 ft | 519 kts | 78° |
| 2026-05-04 13:24 | 59.75957 | -61.49176 | 34929 ft | 525 kts | 73° |
| 2026-05-04 13:24 | 59.78930 | -61.35892 | 34921 ft | 526 kts | 73° |
| 2026-05-04 13:25 | 59.83328 | -61.15932 | 34906 ft | 527 kts | 73° |
| 2026-05-04 13:25 | 59.86219 | -61.02547 | 34913 ft | 527 kts | 73° |
| 2026-05-04 13:26 | 59.89091 | -60.89141 | 34908 ft | 526 kts | 73° |
| 2026-05-04 13:26 | 59.91950 | -60.75712 | 34913 ft | 526 kts | 73° |
| 2026-05-04 13:27 | 59.94802 | -60.62241 | 34919 ft | 527 kts | 73° |
| 2026-05-04 13:27 | 59.97642 | -60.48741 | 34921 ft | 527 kts | 73° |
| 2026-05-04 13:28 | 60.00472 | -60.35201 | 34916 ft | 528 kts | 73° |
| 2026-05-04 13:28 | 60.03270 | -60.21724 | 34920 ft | 528 kts | 73° |
| 2026-05-04 13:29 | 60.06072 | -60.08136 | 34901 ft | 527 kts | 73° |
| 2026-05-04 13:29 | 60.08862 | -59.94516 | 34916 ft | 529 kts | 73° |
| 2026-05-04 13:30 | 60.11643 | -59.80844 | 34923 ft | 530 kts | 73° |
| 2026-05-04 13:30 | 60.14398 | -59.67213 | 34921 ft | 530 kts | 73° |
| 2026-05-04 13:31 | 60.17157 | -59.53473 | 34917 ft | 531 kts | 73° |
| 2026-05-04 13:31 | 60.19899 | -59.39722 | 34908 ft | 531 kts | 73° |
| 2026-05-04 13:32 | 60.22631 | -59.25922 | 34919 ft | 531 kts | 73° |
| 2026-05-04 13:32 | 60.25351 | -59.12087 | 34926 ft | 532 kts | 73° |
| 2026-05-04 13:33 | 60.28062 | -58.98203 | 34924 ft | 532 kts | 73° |
| 2026-05-04 13:33 | 60.30758 | -58.84299 | 34925 ft | 532 kts | 73° |
| 2026-05-04 13:34 | 60.33426 | -58.70445 | 34926 ft | 532 kts | 73° |
| 2026-05-04 13:34 | 60.36095 | -58.56480 | 34922 ft | 533 kts | 73° |
| 2026-05-04 13:35 | 60.40076 | -58.35471 | 34930 ft | 533 kts | 73° |
| 2026-05-04 13:36 | 60.42268 | -58.23804 | 34929 ft | 534 kts | 73° |
| 2026-05-04 13:36 | 60.45320 | -58.07457 | 34929 ft | 534 kts | 73° |
| 2026-05-04 13:37 | 60.47226 | -57.95587 | 34923 ft | 528 kts | 82° |
| 2026-05-04 13:37 | 60.48643 | -57.81031 | 34930 ft | 526 kts | 84° |
| 2026-05-04 13:38 | 60.49969 | -57.66403 | 34935 ft | 527 kts | 84° |
| 2026-05-04 13:38 | 60.51320 | -57.51750 | 34937 ft | 529 kts | 84° |
| 2026-05-04 13:39 | 60.52680 | -57.37169 | 34932 ft | 530 kts | 84° |
| 2026-05-04 13:39 | 60.54044 | -57.22450 | 34935 ft | 530 kts | 84° |
| 2026-05-04 13:40 | 60.55388 | -57.07739 | 34907 ft | 529 kts | 84° |
| 2026-05-04 13:40 | 60.56715 | -56.93010 | 34931 ft | 528 kts | 84° |
| 2026-05-04 13:41 | 60.58020 | -56.78302 | 34940 ft | 528 kts | 84° |
| 2026-05-04 13:41 | 60.59302 | -56.63668 | 34936 ft | 527 kts | 84° |
| 2026-05-04 13:42 | 60.61203 | -56.41604 | 34937 ft | 527 kts | 84° |
| 2026-05-04 13:42 | 60.62450 | -56.26889 | 34937 ft | 527 kts | 85° |
| 2026-05-04 13:43 | 60.63678 | -56.12187 | 34917 ft | 526 kts | 85° |
| 2026-05-04 13:43 | 60.64883 | -55.97556 | 34932 ft | 527 kts | 84° |
| 2026-05-04 13:44 | 60.66083 | -55.82771 | 34954 ft | 529 kts | 84° |
| 2026-05-04 13:44 | 60.67272 | -55.67926 | 34949 ft | 530 kts | 84° |
| 2026-05-04 13:45 | 60.68445 | -55.53061 | 34954 ft | 531 kts | 84° |
| 2026-05-04 13:45 | 60.69599 | -55.38233 | 34952 ft | 532 kts | 85° |
| 2026-05-04 13:46 | 60.70742 | -55.23312 | 34948 ft | 531 kts | 85° |
| 2026-05-04 13:46 | 60.71867 | -55.08384 | 34947 ft | 531 kts | 84° |
| 2026-05-04 13:47 | 60.72975 | -54.93464 | 34957 ft | 532 kts | 84° |
| 2026-05-04 13:47 | 60.74068 | -54.78506 | 34961 ft | 533 kts | 84° |
| 2026-05-04 13:48 | 60.75147 | -54.63510 | 34959 ft | 533 kts | 84° |
| 2026-05-04 13:48 | 60.76210 | -54.48487 | 34968 ft | 534 kts | 85° |
| 2026-05-04 13:49 | 60.77257 | -54.33447 | 34967 ft | 534 kts | 85° |
| 2026-05-04 13:49 | 60.78280 | -54.18500 | 34961 ft | 533 kts | 85° |
| 2026-05-04 13:50 | 60.79292 | -54.03454 | 34969 ft | 534 kts | 84° |
| 2026-05-04 13:50 | 60.80289 | -53.88371 | 34978 ft | 535 kts | 84° |